Yp705 — NFEC — position and weather

sailwx.info

Track history (hours):
 
Tides and Currents Weather Stations Pressure Air Temp Water Temp Dewpoint Dewpoint Depression Visibility Wind Speed Wind Dir Waves Ship Positions

Yp705

Last reported at 2018-Jun-20 17:00 UTC. Time now 2018-Jun-20 17:28 UTC.
Position N 40°30' W 073°57'.

Length 38 m; draft 3.3 m.

Type: Ship. MMSI: 369970479.

Date/timePositionNaut miles runAvg speedWind from/ knotsBaromVisibWave heightAir tempDewpointWater temp
2018-Jun-20 17:00N 40°30' W 073°57'4 8.9
2018-Jun-20 16:30N 40°32' W 074°01'510.1
2018-Jun-20 16:00N 40°37' W 074°03'5 9.6
2018-Jun-20 15:30N 40°42' W 074°01'4 7.2
2018-Jun-20 15:00N 40°45' W 073°58'56 7.9
2018-Jun-20 07:54N 41°08' W 072°50'3 8.3
2018-Jun-20 07:30N 41°08' W 072°46'4 8.4
2018-Jun-20 07:00N 41°09' W 072°40'4 8.5
2018-Jun-20 06:30N 41°09' W 072°34'4 8.4
2018-Jun-20 06:00N 41°10' W 072°29'4 8.5
2018-Jun-20 05:30N 41°11' W 072°23'4 8.6
2018-Jun-20 04:59N 41°12' W 072°18'5 8.3
2018-Jun-20 04:26N 41°14' W 072°12'93 6.5
2018-Jun-19 14:08N 42°15' W 070°37'1 8.5
2018-Jun-19 14:00N 42°15' W 070°38'4 8.2
2018-Jun-19 13:30N 42°18' W 070°42'4 8.2
2018-Jun-19 13:01N 42°21' W 070°46'4 7.6
2018-Jun-19 12:30N 42°23' W 070°51'4 7.6
2018-Jun-19 12:01N 42°22' W 070°56'4 7.2
2018-Jun-19 11:30N 42°20' W 071°00'3 5.8
2018-Jun-19 11:00N 42°22' W 071°03'0 0.0
2018-Jun-19 10:30N 42°22' W 071°03'0 0.0
2018-Jun-19 10:00N 42°22' W 071°03'0 0.0
2018-Jun-19 09:30N 42°22' W 071°03'0 0.0
2018-Jun-19 09:00N 42°22' W 071°03'0 0.0
2018-Jun-19 08:30N 42°22' W 071°03'0 0.0
2018-Jun-19 08:00N 42°22' W 071°03'0 0.0
2018-Jun-19 07:30N 42°22' W 071°03'0 0.0
2018-Jun-19 07:00N 42°22' W 071°03'0 0.0
2018-Jun-19 06:30N 42°22' W 071°03'0 0.0
2018-Jun-19 06:00N 42°22' W 071°03'0 0.0
2018-Jun-19 05:30N 42°22' W 071°03'0 0.0
2018-Jun-19 05:00N 42°22' W 071°03'0 0.0
2018-Jun-19 04:30N 42°22' W 071°03'0 0.0
2018-Jun-19 04:00N 42°22' W 071°03'0 0.0
2018-Jun-19 03:30N 42°22' W 071°03'0 0.0
2018-Jun-19 03:00N 42°22' W 071°03'0 0.0
2018-Jun-19 02:30N 42°22' W 071°03'0 0.0
2018-Jun-19 02:00N 42°22' W 071°03'0 0.0
2018-Jun-19 01:30N 42°22' W 071°03'0 0.0
2018-Jun-19 01:00N 42°22' W 071°03'0 0.0
2018-Jun-19 00:30N 42°22' W 071°03'0 0.0
2018-Jun-19 00:00N 42°22' W 071°03'0 0.0
2018-Jun-18 23:30N 42°22' W 071°03'0 0.0
2018-Jun-18 23:00N 42°22' W 071°03'0 0.0
2018-Jun-18 22:30N 42°22' W 071°03'0 0.0
2018-Jun-18 22:00N 42°22' W 071°03'0 0.0
2018-Jun-18 21:30N 42°22' W 071°03'0 0.0
2018-Jun-18 21:00N 42°22' W 071°03'0 0.0
2018-Jun-18 20:30N 42°22' W 071°03'0 0.0
2018-Jun-18 20:00N 42°22' W 071°03'0 0.0
2018-Jun-18 19:30N 42°22' W 071°03'0 0.0
2018-Jun-18 19:00N 42°22' W 071°03'0 0.0
2018-Jun-18 18:30N 42°22' W 071°03'0 0.0
2018-Jun-18 18:00N 42°22' W 071°03'0 0.0
2018-Jun-18 17:30N 42°22' W 071°03'0 0.0
2018-Jun-18 17:00N 42°22' W 071°03'0 0.0
2018-Jun-18 16:30N 42°22' W 071°03'0 0.0
2018-Jun-18 16:00N 42°22' W 071°03'0 0.0
2018-Jun-18 15:27N 42°22' W 071°03'0 0.0
2018-Jun-18 14:57N 42°22' W 071°03'0 0.0
2018-Jun-18 14:30N 42°22' W 071°03'0 0.0
2018-Jun-18 14:00N 42°22' W 071°03'0 0.0
2018-Jun-18 13:30N 42°22' W 071°03'0 0.0
2018-Jun-18 13:00N 42°22' W 071°03'0 0.0
2018-Jun-18 12:30N 42°22' W 071°03'0 0.0
2018-Jun-18 12:00N 42°22' W 071°03'0 0.0
2018-Jun-18 11:24N 42°22' W 071°03'0 0.0
2018-Jun-18 11:00N 42°22' W 071°03'0 0.0
2018-Jun-18 10:30N 42°22' W 071°03'0 0.0
2018-Jun-18 10:00N 42°22' W 071°03'0 0.0
2018-Jun-18 09:30N 42°22' W 071°03'0 0.0
2018-Jun-18 09:00N 42°22' W 071°03'0 0.0
2018-Jun-18 08:30N 42°22' W 071°03'0 0.0
2018-Jun-18 08:00N 42°22' W 071°03'0 0.0
2018-Jun-18 07:30N 42°22' W 071°03'0 0.0
2018-Jun-18 07:00N 42°22' W 071°03'0 0.0
2018-Jun-18 06:30N 42°22' W 071°03'0 0.0
2018-Jun-18 06:00N 42°22' W 071°03'0 0.0
2018-Jun-18 05:30N 42°22' W 071°03'0 0.0
2018-Jun-18 05:00N 42°22' W 071°03'0 0.0
2018-Jun-18 04:30N 42°22' W 071°03'0 0.0
2018-Jun-18 04:00N 42°22' W 071°03'0 0.0
2018-Jun-18 03:30N 42°22' W 071°03'0 0.0
2018-Jun-18 03:00N 42°22' W 071°03'0 0.0
2018-Jun-18 02:30N 42°22' W 071°03'0 0.0
2018-Jun-18 02:00N 42°22' W 071°03'0 0.0
2018-Jun-18 01:30N 42°22' W 071°03'0 0.0
2018-Jun-18 01:00N 42°22' W 071°03'0 0.0
2018-Jun-18 00:30N 42°22' W 071°03'0 0.0
2018-Jun-18 00:00N 42°22' W 071°03'0 0.0
2018-Jun-17 23:30N 42°22' W 071°03'0 0.0
2018-Jun-17 23:00N 42°22' W 071°03'0 0.0
2018-Jun-17 22:30N 42°22' W 071°03'0 0.0
2018-Jun-17 22:00N 42°22' W 071°03'0 0.0
2018-Jun-17 21:30N 42°22' W 071°03'0 0.0
2018-Jun-17 21:00N 42°22' W 071°03'0 0.0
2018-Jun-17 20:30N 42°22' W 071°03'0 0.0
2018-Jun-17 20:00N 42°22' W 071°03'0 0.0
2018-Jun-17 19:30N 42°22' W 071°03'0 0.0
2018-Jun-17 19:00N 42°22' W 071°03'0 0.0
2018-Jun-17 18:30N 42°22' W 071°03'0 0.0
2018-Jun-17 18:00N 42°22' W 071°03'0 0.0
2018-Jun-17 17:30N 42°22' W 071°03'0 0.0
2018-Jun-17 17:00N 42°22' W 071°03'0 0.0
2018-Jun-17 16:30N 42°22' W 071°03'0 0.0
2018-Jun-17 16:00N 42°22' W 071°03'0 0.0
2018-Jun-17 15:30N 42°22' W 071°03'0 0.0
2018-Jun-17 15:00N 42°22' W 071°03'0 0.0
2018-Jun-17 14:30N 42°22' W 071°03'0 0.0
2018-Jun-17 14:00N 42°22' W 071°03'0 0.0
2018-Jun-17 13:30N 42°22' W 071°03'0 0.0
2018-Jun-17 13:00N 42°22' W 071°03'0 0.0
2018-Jun-17 12:30N 42°22' W 071°03'0 0.0
2018-Jun-17 12:00N 42°22' W 071°03'0 0.0
2018-Jun-17 11:30N 42°22' W 071°03'0 0.0
2018-Jun-17 11:00N 42°22' W 071°03'0 0.0
2018-Jun-17 10:30N 42°22' W 071°03'0 0.0
2018-Jun-17 10:00N 42°22' W 071°03'0 0.0
2018-Jun-17 09:30N 42°22' W 071°03'0 0.0
2018-Jun-17 09:00N 42°22' W 071°03'0 0.0
2018-Jun-17 08:30N 42°22' W 071°03'0 0.0
2018-Jun-17 08:00N 42°22' W 071°03'0 0.0
2018-Jun-17 07:30N 42°22' W 071°03'0 0.0
2018-Jun-17 07:00N 42°22' W 071°03'0 0.0
2018-Jun-17 06:30N 42°22' W 071°03'0 0.0
2018-Jun-17 06:00N 42°22' W 071°03'0 0.0
2018-Jun-17 05:30N 42°22' W 071°03'0 0.0
2018-Jun-17 05:00N 42°22' W 071°03'0 0.0
2018-Jun-17 04:30N 42°22' W 071°03'0 0.0
2018-Jun-17 04:00N 42°22' W 071°03'0 0.0
2018-Jun-17 03:30N 42°22' W 071°03'0 0.0
2018-Jun-17 03:00N 42°22' W 071°03'0 0.0
2018-Jun-17 02:30N 42°22' W 071°03'0 0.0
2018-Jun-17 02:00N 42°22' W 071°03'0 0.0
2018-Jun-17 01:30N 42°22' W 071°03'0 0.0
2018-Jun-17 01:00N 42°22' W 071°03'0 0.0
2018-Jun-17 00:30N 42°22' W 071°03'0 0.0
2018-Jun-17 00:00N 42°22' W 071°03'0 0.0
2018-Jun-16 23:30N 42°22' W 071°03'0 0.0
2018-Jun-16 23:00N 42°22' W 071°03'0 0.0
2018-Jun-16 22:30N 42°22' W 071°03'0 0.0
2018-Jun-16 22:00N 42°22' W 071°03'0 0.0
2018-Jun-16 21:30N 42°22' W 071°03'0 0.0
2018-Jun-16 21:00N 42°22' W 071°03'0 0.0
2018-Jun-16 20:30N 42°22' W 071°03'0 0.0
2018-Jun-16 20:00N 42°22' W 071°03'0 0.0
2018-Jun-16 19:30N 42°22' W 071°03'0 0.0
2018-Jun-16 19:00N 42°22' W 071°03'0 0.0
2018-Jun-16 18:30N 42°22' W 071°03'0 0.0
2018-Jun-16 18:00N 42°22' W 071°03'0 0.0
2018-Jun-16 17:30N 42°22' W 071°03'0 0.0
2018-Jun-16 17:00N 42°22' W 071°03'0 0.0
2018-Jun-16 16:31N 42°22' W 071°03'3 6.2
2018-Jun-16 16:00N 42°20' W 070°60'5 9.0
2018-Jun-16 15:30N 42°22' W 070°55'5 9.4
2018-Jun-16 15:00N 42°23' W 070°48'4 8.1
2018-Jun-16 14:30N 42°21' W 070°44'5 8.9
2018-Jun-16 14:00N 42°17' W 070°40'30 8.3
2018-Jun-16 10:21N 41°48' W 070°28'3 7.3
2018-Jun-16 10:00N 41°46' W 070°31'81 7.5
2018-Jun-15 23:13N 41°14' W 072°11'2 9.9
2018-Jun-15 22:58N 41°13' W 072°14'613.3
2018-Jun-15 22:30N 41°12' W 072°22'612.5
2018-Jun-15 22:01N 41°10' W 072°30'612.7
2018-Jun-15 21:30N 41°09' W 072°38'61 2.0
2018-Jun-14 15:13N 40°48' W 073°53'2 7.2
2018-Jun-14 14:56N 40°47' W 073°55'3 7.8
2018-Jun-14 14:30N 40°44' W 073°58'3 7.0
2018-Jun-14 14:00N 40°42' W 074°02'4 8.1
2018-Jun-14 13:30N 40°46' W 074°00'0 0.0
2018-Jun-12 21:17N 40°46' W 074°00'1 4.5
2018-Jun-12 21:00N 40°45' W 074°01'510.3
2018-Jun-12 20:30N 40°40' W 074°03'610.5
2018-Jun-12 19:58N 40°34' W 074°02'62 9.5
2018-Jun-12 13:27N 39°34' W 073°47'510.4
2018-Jun-12 12:57N 39°30' W 073°52'510.4
2018-Jun-12 12:30N 39°27' W 073°57'510.5
2018-Jun-12 11:59N 39°24' W 074°02'510.5
2018-Jun-12 11:30N 39°21' W 074°07'510.3
2018-Jun-12 11:00N 39°18' W 074°13'510.1
2018-Jun-12 10:30N 39°14' W 074°18'5 9.9
2018-Jun-12 10:00N 39°11' W 074°23'510.1
2018-Jun-12 09:30N 39°08' W 074°28'7 9.9
2018-Jun-12 08:49N 39°04' W 074°34'510.0
2018-Jun-12 08:18N 39°01' W 074°40'4 9.8
2018-Jun-12 07:52N 38°57' W 074°43'4 9.8
2018-Jun-12 07:28N 38°54' W 074°46'510.1
2018-Jun-12 07:00N 38°50' W 074°50'6 9.7
2018-Jun-12 06:21N 38°48' W 074°57'5 9.2
2018-Jun-12 05:51N 38°50' W 075°03'812.2
2018-Jun-12 05:13N 38°57' W 075°07'1112.6
2018-Jun-12 04:18N 39°07' W 075°13'511.3
2018-Jun-12 03:52N 39°11' W 075°17'411.6
2018-Jun-12 03:30N 39°15' W 075°19'611.1
2018-Jun-12 03:00N 39°19' W 075°24'510.5
2018-Jun-12 02:30N 39°23' W 075°28'5 9.4
2018-Jun-12 02:00N 39°26' W 075°33'4 8.2
2018-Jun-12 01:30N 39°30' W 075°33'4 8.5
2018-Jun-12 01:00N 39°35' W 075°33'4 7.6
2018-Jun-12 00:30N 39°38' W 075°34'4 8.5
2018-Jun-12 00:00N 39°42' W 075°31'5 9.2
2018-Jun-11 23:30N 39°46' W 075°28'510.5
2018-Jun-11 23:00N 39°49' W 075°23'611.3
2018-Jun-11 22:30N 39°51' W 075°16'611.5
2018-Jun-11 22:00N 39°53' W 075°09'4 7.8
2018-Jun-11 21:30N 39°57' W 075°08'0 0.0
2018-Jun-11 21:00N 39°57' W 075°08'0 0.0
2018-Jun-11 20:30N 39°57' W 075°08'0 0.0
2018-Jun-11 20:00N 39°57' W 075°08'0 0.0
2018-Jun-11 19:30N 39°57' W 075°08'0 0.0
2018-Jun-11 19:00N 39°57' W 075°08'0 0.0
2018-Jun-11 18:30N 39°57' W 075°08'0 0.0
2018-Jun-11 18:00N 39°57' W 075°08'0 0.0
2018-Jun-11 17:30N 39°57' W 075°08'0 0.0
2018-Jun-11 17:00N 39°57' W 075°08'0 0.0
2018-Jun-11 16:27N 39°57' W 075°08'0 0.0
2018-Jun-11 16:00N 39°57' W 075°08'0 0.0
2018-Jun-11 15:30N 39°57' W 075°08'0 0.0
2018-Jun-11 15:00N 39°57' W 075°08'0 0.0
2018-Jun-11 14:30N 39°57' W 075°08'0 0.0
2018-Jun-11 14:00N 39°57' W 075°08'0 0.0
2018-Jun-11 13:30N 39°57' W 075°08'0 0.0
2018-Jun-11 13:00N 39°57' W 075°08'0 0.0
2018-Jun-11 12:19N 39°57' W 075°08'0 0.0
2018-Jun-11 11:59N 39°57' W 075°08'0 0.0
2018-Jun-11 11:30N 39°57' W 075°08'0 0.0
2018-Jun-11 11:00N 39°57' W 075°08'0 0.0
2018-Jun-11 10:30N 39°57' W 075°08'0 0.0
2018-Jun-11 10:00N 39°57' W 075°08'0 0.0
2018-Jun-11 09:30N 39°57' W 075°08'0 0.0
2018-Jun-11 09:00N 39°57' W 075°08'0 0.0
2018-Jun-11 08:30N 39°57' W 075°08'0 0.0
2018-Jun-11 07:57N 39°57' W 075°08'0 0.0
2018-Jun-11 07:30N 39°57' W 075°08'0 0.0
2018-Jun-11 07:00N 39°57' W 075°08'0 0.0
2018-Jun-11 06:30N 39°57' W 075°08'0 0.0
2018-Jun-11 06:00N 39°57' W 075°08'0 0.0
2018-Jun-11 05:30N 39°57' W 075°08'0 0.0
2018-Jun-11 05:00N 39°57' W 075°08'0 0.0
2018-Jun-11 04:30N 39°57' W 075°08'0 0.0
2018-Jun-11 04:00N 39°57' W 075°08'0 0.0
2018-Jun-11 03:30N 39°57' W 075°08'0 0.0
2018-Jun-10 22:22N 39°57' W 075°08'0 0.0
2018-Jun-10 21:50N 39°57' W 075°08'0 0.0
2018-Jun-10 21:20N 39°57' W 075°08'0 0.0
2018-Jun-10 20:51N 39°57' W 075°08'0 0.0
2018-Jun-10 20:20N 39°57' W 075°08'0 0.0
2018-Jun-10 19:50N 39°57' W 075°08'0 0.0
2018-Jun-10 18:20N 39°57' W 075°08'0 0.0
2018-Jun-10 17:51N 39°57' W 075°08'  
Track history (hours):
 
Tides and Currents Weather Stations Pressure Air Temp Water Temp Dewpoint Dewpoint Depression Visibility Wind Speed Wind Dir Waves Ship Positions

Yp705

Last reported at 2018-Jun-20 17:00 UTC. Time now 2018-Jun-20 17:28 UTC.
Position N 40°30' W 073°57'.

Length 38 m; draft 3.3 m.

Type: Ship. MMSI: 369970479.

Date/timePositionNaut miles runAvg speedWind from/ knotsBaromVisibWave heightAir tempDewpointWater temp
2018-Jun-20 17:00N 40°30' W 073°57'4 8.9
2018-Jun-20 16:30N 40°32' W 074°01'510.1
2018-Jun-20 16:00N 40°37' W 074°03'5 9.6
2018-Jun-20 15:30N 40°42' W 074°01'4 7.2
2018-Jun-20 15:00N 40°45' W 073°58'56 7.9
2018-Jun-20 07:54N 41°08' W 072°50'3 8.3
2018-Jun-20 07:30N 41°08' W 072°46'4 8.4
2018-Jun-20 07:00N 41°09' W 072°40'4 8.5
2018-Jun-20 06:30N 41°09' W 072°34'4 8.4
2018-Jun-20 06:00N 41°10' W 072°29'4 8.5
2018-Jun-20 05:30N 41°11' W 072°23'4 8.6
2018-Jun-20 04:59N 41°12' W 072°18'5 8.3
2018-Jun-20 04:26N 41°14' W 072°12'93 6.5
2018-Jun-19 14:08N 42°15' W 070°37'1 8.5
2018-Jun-19 14:00N 42°15' W 070°38'4 8.2
2018-Jun-19 13:30N 42°18' W 070°42'4 8.2
2018-Jun-19 13:01N 42°21' W 070°46'4 7.6
2018-Jun-19 12:30N 42°23' W 070°51'4 7.6
2018-Jun-19 12:01N 42°22' W 070°56'4 7.2
2018-Jun-19 11:30N 42°20' W 071°00'3 5.8
2018-Jun-19 11:00N 42°22' W 071°03'0 0.0
2018-Jun-19 10:30N 42°22' W 071°03'0 0.0
2018-Jun-19 10:00N 42°22' W 071°03'0 0.0
2018-Jun-19 09:30N 42°22' W 071°03'0 0.0
2018-Jun-19 09:00N 42°22' W 071°03'0 0.0
2018-Jun-19 08:30N 42°22' W 071°03'0 0.0
2018-Jun-19 08:00N 42°22' W 071°03'0 0.0
2018-Jun-19 07:30N 42°22' W 071°03'0 0.0
2018-Jun-19 07:00N 42°22' W 071°03'0 0.0
2018-Jun-19 06:30N 42°22' W 071°03'0 0.0
2018-Jun-19 06:00N 42°22' W 071°03'0 0.0
2018-Jun-19 05:30N 42°22' W 071°03'0 0.0
2018-Jun-19 05:00N 42°22' W 071°03'0 0.0
2018-Jun-19 04:30N 42°22' W 071°03'0 0.0
2018-Jun-19 04:00N 42°22' W 071°03'0 0.0
2018-Jun-19 03:30N 42°22' W 071°03'0 0.0
2018-Jun-19 03:00N 42°22' W 071°03'0 0.0
2018-Jun-19 02:30N 42°22' W 071°03'0 0.0
2018-Jun-19 02:00N 42°22' W 071°03'0 0.0
2018-Jun-19 01:30N 42°22' W 071°03'0 0.0
2018-Jun-19 01:00N 42°22' W 071°03'0 0.0
2018-Jun-19 00:30N 42°22' W 071°03'0 0.0
2018-Jun-19 00:00N 42°22' W 071°03'0 0.0
2018-Jun-18 23:30N 42°22' W 071°03'0 0.0
2018-Jun-18 23:00N 42°22' W 071°03'0 0.0
2018-Jun-18 22:30N 42°22' W 071°03'0 0.0
2018-Jun-18 22:00N 42°22' W 071°03'0 0.0
2018-Jun-18 21:30N 42°22' W 071°03'0 0.0
2018-Jun-18 21:00N 42°22' W 071°03'0 0.0
2018-Jun-18 20:30N 42°22' W 071°03'0 0.0
2018-Jun-18 20:00N 42°22' W 071°03'0 0.0
2018-Jun-18 19:30N 42°22' W 071°03'0 0.0
2018-Jun-18 19:00N 42°22' W 071°03'0 0.0
2018-Jun-18 18:30N 42°22' W 071°03'0 0.0
2018-Jun-18 18:00N 42°22' W 071°03'0 0.0
2018-Jun-18 17:30N 42°22' W 071°03'0 0.0
2018-Jun-18 17:00N 42°22' W 071°03'0 0.0
2018-Jun-18 16:30N 42°22' W 071°03'0 0.0
2018-Jun-18 16:00N 42°22' W 071°03'0 0.0
2018-Jun-18 15:27N 42°22' W 071°03'0 0.0
2018-Jun-18 14:57N 42°22' W 071°03'0 0.0
2018-Jun-18 14:30N 42°22' W 071°03'0 0.0
2018-Jun-18 14:00N 42°22' W 071°03'0 0.0
2018-Jun-18 13:30N 42°22' W 071°03'0 0.0
2018-Jun-18 13:00N 42°22' W 071°03'0 0.0
2018-Jun-18 12:30N 42°22' W 071°03'0 0.0
2018-Jun-18 12:00N 42°22' W 071°03'0 0.0
2018-Jun-18 11:24N 42°22' W 071°03'0 0.0
2018-Jun-18 11:00N 42°22' W 071°03'0 0.0
2018-Jun-18 10:30N 42°22' W 071°03'0 0.0
2018-Jun-18 10:00N 42°22' W 071°03'0 0.0
2018-Jun-18 09:30N 42°22' W 071°03'0 0.0
2018-Jun-18 09:00N 42°22' W 071°03'0 0.0
2018-Jun-18 08:30N 42°22' W 071°03'0 0.0
2018-Jun-18 08:00N 42°22' W 071°03'0 0.0
2018-Jun-18 07:30N 42°22' W 071°03'0 0.0
2018-Jun-18 07:00N 42°22' W 071°03'0 0.0
2018-Jun-18 06:30N 42°22' W 071°03'0 0.0
2018-Jun-18 06:00N 42°22' W 071°03'0 0.0
2018-Jun-18 05:30N 42°22' W 071°03'0 0.0
2018-Jun-18 05:00N 42°22' W 071°03'0 0.0
2018-Jun-18 04:30N 42°22' W 071°03'0 0.0
2018-Jun-18 04:00N 42°22' W 071°03'0 0.0
2018-Jun-18 03:30N 42°22' W 071°03'0 0.0
2018-Jun-18 03:00N 42°22' W 071°03'0 0.0
2018-Jun-18 02:30N 42°22' W 071°03'0 0.0
2018-Jun-18 02:00N 42°22' W 071°03'0 0.0
2018-Jun-18 01:30N 42°22' W 071°03'0 0.0
2018-Jun-18 01:00N 42°22' W 071°03'0 0.0
2018-Jun-18 00:30N 42°22' W 071°03'0 0.0
2018-Jun-18 00:00N 42°22' W 071°03'0 0.0
2018-Jun-17 23:30N 42°22' W 071°03'0 0.0
2018-Jun-17 23:00N 42°22' W 071°03'0 0.0
2018-Jun-17 22:30N 42°22' W 071°03'0 0.0
2018-Jun-17 22:00N 42°22' W 071°03'0 0.0
2018-Jun-17 21:30N 42°22' W 071°03'0 0.0
2018-Jun-17 21:00N 42°22' W 071°03'0 0.0
2018-Jun-17 20:30N 42°22' W 071°03'0 0.0
2018-Jun-17 20:00N 42°22' W 071°03'0 0.0
2018-Jun-17 19:30N 42°22' W 071°03'0 0.0
2018-Jun-17 19:00N 42°22' W 071°03'0 0.0
2018-Jun-17 18:30N 42°22' W 071°03'0 0.0
2018-Jun-17 18:00N 42°22' W 071°03'0 0.0
2018-Jun-17 17:30N 42°22' W 071°03'0 0.0
2018-Jun-17 17:00N 42°22' W 071°03'0 0.0
2018-Jun-17 16:30N 42°22' W 071°03'0 0.0
2018-Jun-17 16:00N 42°22' W 071°03'0 0.0
2018-Jun-17 15:30N 42°22' W 071°03'0 0.0
2018-Jun-17 15:00N 42°22' W 071°03'0 0.0
2018-Jun-17 14:30N 42°22' W 071°03'0 0.0
2018-Jun-17 14:00N 42°22' W 071°03'0 0.0
2018-Jun-17 13:30N 42°22' W 071°03'0 0.0
2018-Jun-17 13:00N 42°22' W 071°03'0 0.0
2018-Jun-17 12:30N 42°22' W 071°03'0 0.0
2018-Jun-17 12:00N 42°22' W 071°03'0 0.0
2018-Jun-17 11:30N 42°22' W 071°03'0 0.0
2018-Jun-17 11:00N 42°22' W 071°03'0 0.0
2018-Jun-17 10:30N 42°22' W 071°03'0 0.0
2018-Jun-17 10:00N 42°22' W 071°03'0 0.0
2018-Jun-17 09:30N 42°22' W 071°03'0 0.0
2018-Jun-17 09:00N 42°22' W 071°03'0 0.0
2018-Jun-17 08:30N 42°22' W 071°03'0 0.0
2018-Jun-17 08:00N 42°22' W 071°03'0 0.0
2018-Jun-17 07:30N 42°22' W 071°03'0 0.0
2018-Jun-17 07:00N 42°22' W 071°03'0 0.0
2018-Jun-17 06:30N 42°22' W 071°03'0 0.0
2018-Jun-17 06:00N 42°22' W 071°03'0 0.0
2018-Jun-17 05:30N 42°22' W 071°03'0 0.0
2018-Jun-17 05:00N 42°22' W 071°03'0 0.0
2018-Jun-17 04:30N 42°22' W 071°03'0 0.0
2018-Jun-17 04:00N 42°22' W 071°03'0 0.0
2018-Jun-17 03:30N 42°22' W 071°03'0 0.0
2018-Jun-17 03:00N 42°22' W 071°03'0 0.0
2018-Jun-17 02:30N 42°22' W 071°03'0 0.0
2018-Jun-17 02:00N 42°22' W 071°03'0 0.0
2018-Jun-17 01:30N 42°22' W 071°03'0 0.0
2018-Jun-17 01:00N 42°22' W 071°03'0 0.0
2018-Jun-17 00:30N 42°22' W 071°03'0 0.0
2018-Jun-17 00:00N 42°22' W 071°03'0 0.0
2018-Jun-16 23:30N 42°22' W 071°03'0 0.0
2018-Jun-16 23:00N 42°22' W 071°03'0 0.0
2018-Jun-16 22:30N 42°22' W 071°03'0 0.0
2018-Jun-16 22:00N 42°22' W 071°03'0 0.0
2018-Jun-16 21:30N 42°22' W 071°03'0 0.0
2018-Jun-16 21:00N 42°22' W 071°03'0 0.0
2018-Jun-16 20:30N 42°22' W 071°03'0 0.0
2018-Jun-16 20:00N 42°22' W 071°03'0 0.0
2018-Jun-16 19:30N 42°22' W 071°03'0 0.0
2018-Jun-16 19:00N 42°22' W 071°03'0 0.0
2018-Jun-16 18:30N 42°22' W 071°03'0 0.0
2018-Jun-16 18:00N 42°22' W 071°03'0 0.0
2018-Jun-16 17:30N 42°22' W 071°03'0 0.0
2018-Jun-16 17:00N 42°22' W 071°03'0 0.0
2018-Jun-16 16:31N 42°22' W 071°03'3 6.2
2018-Jun-16 16:00N 42°20' W 070°60'5 9.0
2018-Jun-16 15:30N 42°22' W 070°55'5 9.4
2018-Jun-16 15:00N 42°23' W 070°48'4 8.1
2018-Jun-16 14:30N 42°21' W 070°44'5 8.9
2018-Jun-16 14:00N 42°17' W 070°40'30 8.3
2018-Jun-16 10:21N 41°48' W 070°28'3 7.3
2018-Jun-16 10:00N 41°46' W 070°31'81 7.5
2018-Jun-15 23:13N 41°14' W 072°11'2 9.9
2018-Jun-15 22:58N 41°13' W 072°14'613.3
2018-Jun-15 22:30N 41°12' W 072°22'612.5
2018-Jun-15 22:01N 41°10' W 072°30'612.7
2018-Jun-15 21:30N 41°09' W 072°38'61 2.0
2018-Jun-14 15:13N 40°48' W 073°53'2 7.2
2018-Jun-14 14:56N 40°47' W 073°55'3 7.8
2018-Jun-14 14:30N 40°44' W 073°58'3 7.0
2018-Jun-14 14:00N 40°42' W 074°02'4 8.1
2018-Jun-14 13:30N 40°46' W 074°00'0 0.0
2018-Jun-12 21:17N 40°46' W 074°00'1 4.5
2018-Jun-12 21:00N 40°45' W 074°01'510.3
2018-Jun-12 20:30N 40°40' W 074°03'610.5
2018-Jun-12 19:58N 40°34' W 074°02'62 9.5
2018-Jun-12 13:27N 39°34' W 073°47'510.4
2018-Jun-12 12:57N 39°30' W 073°52'510.4
2018-Jun-12 12:30N 39°27' W 073°57'510.5
2018-Jun-12 11:59N 39°24' W 074°02'510.5
2018-Jun-12 11:30N 39°21' W 074°07'510.3
2018-Jun-12 11:00N 39°18' W 074°13'510.1
2018-Jun-12 10:30N 39°14' W 074°18'5 9.9
2018-Jun-12 10:00N 39°11' W 074°23'510.1
2018-Jun-12 09:30N 39°08' W 074°28'7 9.9
2018-Jun-12 08:49N 39°04' W 074°34'510.0
2018-Jun-12 08:18N 39°01' W 074°40'4 9.8
2018-Jun-12 07:52N 38°57' W 074°43'4 9.8
2018-Jun-12 07:28N 38°54' W 074°46'510.1
2018-Jun-12 07:00N 38°50' W 074°50'6 9.7
2018-Jun-12 06:21N 38°48' W 074°57'5 9.2
2018-Jun-12 05:51N 38°50' W 075°03'812.2
2018-Jun-12 05:13N 38°57' W 075°07'1112.6
2018-Jun-12 04:18N 39°07' W 075°13'511.3
2018-Jun-12 03:52N 39°11' W 075°17'411.6
2018-Jun-12 03:30N 39°15' W 075°19'611.1
2018-Jun-12 03:00N 39°19' W 075°24'510.5
2018-Jun-12 02:30N 39°23' W 075°28'5 9.4
2018-Jun-12 02:00N 39°26' W 075°33'4 8.2
2018-Jun-12 01:30N 39°30' W 075°33'4 8.5
2018-Jun-12 01:00N 39°35' W 075°33'4 7.6
2018-Jun-12 00:30N 39°38' W 075°34'4 8.5
2018-Jun-12 00:00N 39°42' W 075°31'5 9.2
2018-Jun-11 23:30N 39°46' W 075°28'510.5
2018-Jun-11 23:00N 39°49' W 075°23'611.3
2018-Jun-11 22:30N 39°51' W 075°16'611.5
2018-Jun-11 22:00N 39°53' W 075°09'4 7.8
2018-Jun-11 21:30N 39°57' W 075°08'0 0.0
2018-Jun-11 21:00N 39°57' W 075°08'0 0.0
2018-Jun-11 20:30N 39°57' W 075°08'0 0.0
2018-Jun-11 20:00N 39°57' W 075°08'0 0.0
2018-Jun-11 19:30N 39°57' W 075°08'0 0.0
2018-Jun-11 19:00N 39°57' W 075°08'0 0.0
2018-Jun-11 18:30N 39°57' W 075°08'0 0.0
2018-Jun-11 18:00N 39°57' W 075°08'0 0.0
2018-Jun-11 17:30N 39°57' W 075°08'0 0.0
2018-Jun-11 17:00N 39°57' W 075°08'0 0.0
2018-Jun-11 16:27N 39°57' W 075°08'0 0.0
2018-Jun-11 16:00N 39°57' W 075°08'0 0.0
2018-Jun-11 15:30N 39°57' W 075°08'0 0.0
2018-Jun-11 15:00N 39°57' W 075°08'0 0.0
2018-Jun-11 14:30N 39°57' W 075°08'0 0.0
2018-Jun-11 14:00N 39°57' W 075°08'0 0.0
2018-Jun-11 13:30N 39°57' W 075°08'0 0.0
2018-Jun-11 13:00N 39°57' W 075°08'0 0.0
2018-Jun-11 12:19N 39°57' W 075°08'0 0.0
2018-Jun-11 11:59N 39°57' W 075°08'0 0.0
2018-Jun-11 11:30N 39°57' W 075°08'0 0.0
2018-Jun-11 11:00N 39°57' W 075°08'0 0.0
2018-Jun-11 10:30N 39°57' W 075°08'0 0.0
2018-Jun-11 10:00N 39°57' W 075°08'0 0.0
2018-Jun-11 09:30N 39°57' W 075°08'0 0.0
2018-Jun-11 09:00N 39°57' W 075°08'0 0.0
2018-Jun-11 08:30N 39°57' W 075°08'0 0.0
2018-Jun-11 07:57N 39°57' W 075°08'0 0.0
2018-Jun-11 07:30N 39°57' W 075°08'0 0.0
2018-Jun-11 07:00N 39°57' W 075°08'0 0.0
2018-Jun-11 06:30N 39°57' W 075°08'0 0.0
2018-Jun-11 06:00N 39°57' W 075°08'0 0.0
2018-Jun-11 05:30N 39°57' W 075°08'0 0.0
2018-Jun-11 05:00N 39°57' W 075°08'0 0.0
2018-Jun-11 04:30N 39°57' W 075°08'0 0.0
2018-Jun-11 04:00N 39°57' W 075°08'0 0.0
2018-Jun-11 03:30N 39°57' W 075°08'0 0.0
2018-Jun-10 22:22N 39°57' W 075°08'0 0.0
2018-Jun-10 21:50N 39°57' W 075°08'0 0.0
2018-Jun-10 21:20N 39°57' W 075°08'0 0.0
2018-Jun-10 20:51N 39°57' W 075°08'0 0.0
2018-Jun-10 20:20N 39°57' W 075°08'0 0.0
2018-Jun-10 19:50N 39°57' W 075°08'0 0.0
2018-Jun-10 18:20N 39°57' W 075°08'0 0.0
2018-Jun-10 17:51N 39°57' W 075°08'  

Dump ship's entire track history